createdAt,value
2023-05-23T00:00:59.312Z,95341.31
2023-05-23T00:03:45.822Z,95330.19
2023-05-23T00:06:31.980Z,95339.56
2023-05-23T00:09:18.512Z,95332.09
2023-05-23T00:12:05.122Z,95338.41
2023-05-23T00:14:53.714Z,95343.88
2023-05-23T00:17:39.851Z,95324.16
2023-05-23T00:20:25.598Z,95344.88
2023-05-23T00:23:27.862Z,95341.72
2023-05-23T00:26:14.016Z,95340.06
2023-05-23T00:29:05.008Z,95332.91
2023-05-23T00:31:50.951Z,95337.25
2023-05-23T00:34:37.951Z,95341.03
2023-05-23T00:37:23.789Z,95341.41
2023-05-23T00:40:10.286Z,95339.38
2023-05-23T00:42:56.311Z,95337.38
2023-05-23T00:45:42.596Z,95343.28
2023-05-23T00:48:29.266Z,95336.31
2023-05-23T00:51:16.318Z,95348.50
2023-05-23T00:54:04.335Z,95350.78
2023-05-23T00:56:50.263Z,95348.34
2023-05-23T00:59:37.386Z,95333.78
2023-05-23T01:02:23.309Z,95330.97
2023-05-23T01:05:11.599Z,95348.25
2023-05-23T01:07:57.809Z,95340.41
2023-05-23T01:10:43.575Z,95340.31
2023-05-23T01:13:45.154Z,95344.16
2023-05-23T01:16:48.961Z,95329.91
2023-05-23T01:20:10.145Z,95333.06
2023-05-23T01:23:12.115Z,95336.25
2023-05-23T01:26:04.253Z,95332.63
2023-05-23T01:28:54.527Z,95328.66
2023-05-23T01:31:47.152Z,95323.47
2023-05-23T01:34:35.774Z,95327.44
2023-05-23T01:37:21.919Z,95317.94
2023-05-23T01:40:09.657Z,95314.34
2023-05-23T01:42:57.863Z,95302.78
2023-05-23T01:45:43.976Z,95312.22
2023-05-23T01:48:32.228Z,95326.22
2023-05-23T01:51:19.066Z,95319.00
2023-05-23T01:54:05.668Z,95326.84
2023-05-23T01:56:51.655Z,95325.44
2023-05-23T01:59:38.658Z,95322.72
2023-05-23T02:02:25.175Z,95332.38
2023-05-23T02:05:13.824Z,95321.38
2023-05-23T02:08:00.063Z,95313.09
2023-05-23T02:10:46.057Z,95327.09
2023-05-23T02:13:31.827Z,95325.41
2023-05-23T02:16:18.169Z,95322.97
2023-05-23T02:19:05.160Z,95322.75
2023-05-23T02:21:51.092Z,95317.31
2023-05-23T02:24:37.572Z,95321.28
2023-05-23T02:27:23.501Z,95316.50
2023-05-23T02:30:09.714Z,95323.47
2023-05-23T02:32:57.695Z,95327.00
2023-05-23T02:35:44.385Z,95332.88
2023-05-23T02:38:30.950Z,95330.31
2023-05-23T02:41:17.056Z,95327.69
2023-05-23T02:44:03.810Z,95322.59
2023-05-23T02:46:51.250Z,95320.19
2023-05-23T02:49:37.359Z,95331.13
2023-05-23T02:52:23.263Z,95316.84
2023-05-23T02:55:09.767Z,95337.72
2023-05-23T02:58:00.837Z,95328.66
2023-05-23T03:00:47.178Z,95319.09
2023-05-23T03:03:33.313Z,95328.34
2023-05-23T03:06:22.672Z,95334.66
2023-05-23T03:09:10.627Z,95334.56
2023-05-23T03:11:56.573Z,95327.34
2023-05-23T03:14:42.307Z,95329.63
2023-05-23T03:17:28.195Z,95335.06
2023-05-23T03:20:16.411Z,95329.53
2023-05-23T03:23:02.415Z,95339.19
2023-05-23T03:25:48.784Z,95337.84
2023-05-23T03:28:36.959Z,95340.81
2023-05-23T03:31:22.883Z,95339.25
2023-05-23T03:34:09.337Z,95344.69
2023-05-23T03:36:55.501Z,95337.91
2023-05-23T03:39:41.479Z,95346.09
2023-05-23T03:42:28.502Z,95351.53
2023-05-23T03:45:15.102Z,95346.78
2023-05-23T03:48:01.526Z,95352.22
2023-05-23T03:50:47.568Z,95349.84
2023-05-23T03:53:34.807Z,95357.22
2023-05-23T03:56:22.915Z,95355.19
2023-05-23T03:59:09.030Z,95363.81
2023-05-23T04:01:58.807Z,95349.53
2023-05-23T04:04:44.963Z,95352.47
2023-05-23T04:07:34.620Z,95361.53
2023-05-23T04:10:20.524Z,95349.72
2023-05-23T04:13:07.153Z,95362.69
2023-05-23T04:15:53.175Z,95356.78
2023-05-23T04:18:40.062Z,95357.13
2023-05-23T04:21:27.482Z,95359.16
2023-05-23T04:24:22.809Z,95356.78
2023-05-23T04:27:09.027Z,95361.53
2023-05-23T04:29:56.691Z,95363.94
2023-05-23T04:32:43.039Z,95373.34
2023-05-23T04:35:29.164Z,95364.72
2023-05-23T04:38:15.356Z,95362.00
2023-05-23T04:41:01.751Z,95366.84
2023-05-23T04:44:17.126Z,95361.72
2023-05-23T04:47:13.603Z,95376.00
2023-05-23T04:50:15.058Z,95380.00
2023-05-23T04:53:02.434Z,95369.00
2023-05-23T04:55:48.938Z,95368.28
2023-05-23T04:58:37.198Z,95373.97
2023-05-23T05:01:28.204Z,95373.16
2023-05-23T05:04:14.357Z,95373.25
2023-05-23T05:07:00.710Z,95375.56
2023-05-23T05:09:47.183Z,95378.00
2023-05-23T05:12:34.483Z,95375.06
2023-05-23T05:15:20.846Z,95372.75
2023-05-23T05:18:12.428Z,95362.28
2023-05-23T05:20:59.188Z,95373.19
2023-05-23T05:23:45.312Z,95375.66
2023-05-23T05:26:34.407Z,95379.72
2023-05-23T05:29:22.089Z,95359.81
2023-05-23T05:32:09.181Z,95374.47
2023-05-23T05:34:55.778Z,95365.22
2023-05-23T05:37:41.662Z,95366.91
2023-05-23T05:40:29.091Z,95368.50
2023-05-23T05:43:15.448Z,95359.25
2023-05-23T05:46:01.928Z,95359.78
2023-05-23T05:48:49.120Z,95363.13
2023-05-23T05:51:36.883Z,95364.53
2023-05-23T05:54:23.038Z,95352.66
2023-05-23T05:57:09.314Z,95364.81
2023-05-23T05:59:55.539Z,95357.50
2023-05-23T06:02:47.808Z,95359.34
2023-05-23T06:05:39.951Z,95362.88
2023-05-23T06:08:26.148Z,95341.72
2023-05-23T06:11:12.353Z,95360.75
2023-05-23T06:14:00.429Z,95369.13
2023-05-23T06:16:46.710Z,95368.13
2023-05-23T06:19:34.081Z,95358.09
2023-05-23T06:22:20.732Z,95352.63
2023-05-23T06:25:09.967Z,95367.31
2023-05-23T06:28:06.426Z,95337.81
2023-05-23T06:30:53.586Z,95333.47
2023-05-23T06:33:39.870Z,95361.03
2023-05-23T06:36:28.243Z,95363.44
2023-05-23T06:39:15.163Z,95363.59
2023-05-23T06:42:04.083Z,95362.88
2023-05-23T06:45:07.345Z,95346.47
2023-05-23T06:47:53.456Z,95359.22
2023-05-23T06:50:41.551Z,95351.38
2023-05-23T06:53:30.032Z,95353.84
2023-05-23T06:56:16.970Z,95352.75
2023-05-23T06:59:16.195Z,95349.28
2023-05-23T07:02:02.248Z,95344.78
2023-05-23T07:04:52.068Z,95344.06
2023-05-23T07:07:57.884Z,95337.06
2023-05-23T07:10:45.022Z,95339.53
2023-05-23T07:13:44.673Z,95328.63
2023-05-23T07:16:42.902Z,95341.38
2023-05-23T07:19:30.405Z,95339.06
2023-05-23T07:22:16.978Z,95334.03
2023-05-23T07:25:04.072Z,95337.38
2023-05-23T07:27:54.695Z,95340.97
2023-05-23T07:30:42.728Z,95325.41
2023-05-23T07:33:34.666Z,95330.56
2023-05-23T07:36:32.541Z,95323.56
2023-05-23T07:39:22.799Z,95317.28
2023-05-23T07:42:11.524Z,95320.97
2023-05-23T07:44:58.148Z,95319.50
2023-05-23T07:47:44.594Z,95316.06
2023-05-23T07:50:31.715Z,95312.63
2023-05-23T07:53:18.531Z,95315.91
2023-05-23T07:56:06.237Z,95311.22
2023-05-23T07:58:56.304Z,95305.06
2023-05-23T08:01:44.962Z,95312.97
2023-05-23T08:04:36.318Z,95311.44
2023-05-23T08:07:23.916Z,95305.59
2023-05-23T08:10:14.037Z,95310.00
2023-05-23T08:13:01.128Z,95298.63
2023-05-23T08:15:54.307Z,95300.72
2023-05-23T08:18:44.065Z,95301.56
2023-05-23T08:21:30.042Z,95304.31
2023-05-23T08:24:16.156Z,95300.06
2023-05-23T08:27:06.784Z,95305.63
2023-05-23T08:29:55.886Z,95298.59
2023-05-23T08:32:43.799Z,95299.41
2023-05-23T08:35:35.234Z,95314.41
2023-05-23T08:38:24.191Z,95298.75
2023-05-23T08:41:22.311Z,95299.63
2023-05-23T08:44:11.362Z,95283.09
2023-05-23T08:47:08.849Z,95296.22
2023-05-23T08:50:08.420Z,95284.88
2023-05-23T08:52:59.261Z,95290.03
2023-05-23T08:55:48.930Z,95288.16
2023-05-23T08:58:36.557Z,95288.19
2023-05-23T09:01:26.440Z,95258.25
2023-05-23T09:04:15.403Z,95283.56
2023-05-23T09:07:17.062Z,95275.72
2023-05-23T09:10:07.221Z,95283.22
2023-05-23T09:12:53.474Z,95271.13
2023-05-23T09:16:00.229Z,95268.00
2023-05-23T09:18:49.163Z,95275.97
2023-05-23T09:21:36.877Z,95274.41
2023-05-23T09:24:38.661Z,95264.69
2023-05-23T09:27:28.010Z,95267.13
2023-05-23T09:30:14.550Z,95269.91
2023-05-23T09:33:05.459Z,95269.22
2023-05-23T09:35:52.574Z,95268.09
2023-05-23T09:38:39.970Z,95267.38
2023-05-23T09:41:26.698Z,95266.22
2023-05-23T09:44:12.692Z,95268.69
2023-05-23T09:46:58.748Z,95269.84
2023-05-23T09:49:46.751Z,95264.78
2023-05-23T09:52:39.021Z,95274.63
2023-05-23T09:55:25.189Z,95262.84
2023-05-23T09:58:11.491Z,95264.84
2023-05-23T10:01:00.758Z,95261.72
2023-05-23T10:03:51.936Z,95264.94
2023-05-23T10:06:43.129Z,95260.25
2023-05-23T10:09:33.856Z,95264.22
2023-05-23T10:12:41.600Z,95273.69
2023-05-23T10:15:31.461Z,95270.56
2023-05-23T10:18:21.667Z,95273.72
2023-05-23T10:21:12.221Z,95259.97
2023-05-23T10:24:00.047Z,95265.97
2023-05-23T10:26:46.368Z,95261.28
2023-05-23T10:29:33.977Z,95264.06
2023-05-23T10:32:20.062Z,95255.47
2023-05-23T10:35:15.307Z,95257.91
2023-05-23T10:38:14.081Z,95256.38
2023-05-23T10:41:24.681Z,95260.38
2023-05-23T10:44:33.925Z,95255.72
2023-05-23T10:47:28.929Z,95255.31
2023-05-23T10:50:37.421Z,95245.88
2023-05-23T10:53:23.803Z,95254.59
2023-05-23T10:56:10.874Z,95259.28
2023-05-23T10:58:58.581Z,95260.09
2023-05-23T11:01:45.024Z,95252.25
2023-05-23T11:04:30.986Z,95259.31
2023-05-23T11:07:31.034Z,95256.19
2023-05-23T11:10:18.980Z,95260.94
2023-05-23T11:13:07.804Z,95269.59
2023-05-23T11:15:53.836Z,95257.78
2023-05-23T11:18:40.062Z,95269.97
2023-05-23T11:21:27.779Z,95273.91
2023-05-23T11:24:13.899Z,95260.94
2023-05-23T11:27:01.363Z,95255.41
2023-05-23T11:30:00.745Z,95249.09
2023-05-23T11:32:53.142Z,95251.47
2023-05-23T11:35:47.113Z,95247.50
2023-05-23T11:38:33.216Z,95234.13
2023-05-23T11:41:19.589Z,95247.94
2023-05-23T11:44:13.671Z,95246.34
2023-05-23T11:47:04.400Z,95243.59
2023-05-23T11:49:50.530Z,95236.53
2023-05-23T11:52:36.676Z,95220.78
2023-05-23T11:55:23.617Z,95230.22
2023-05-23T11:58:09.738Z,95232.59
2023-05-23T12:01:06.770Z,95247.56
2023-05-23T12:03:53.273Z,95242.81
2023-05-23T12:06:41.931Z,95242.41
2023-05-23T12:09:28.047Z,95250.28
2023-05-23T12:12:14.836Z,95251.47
2023-05-23T12:15:01.389Z,95253.06
2023-05-23T12:17:47.730Z,95257.78
2023-05-23T12:20:35.628Z,95256.63
2023-05-23T12:23:25.307Z,95265.69
2023-05-23T12:26:11.813Z,95268.84
2023-05-23T12:29:00.219Z,95264.91
2023-05-23T12:31:49.498Z,95238.06
2023-05-23T12:34:41.803Z,95244.81
2023-05-23T12:37:30.043Z,95252.66
2023-05-23T12:40:17.884Z,95253.47
2023-05-23T12:43:04.069Z,95248.72
2023-05-23T12:45:50.257Z,95239.66
2023-05-23T12:48:36.033Z,95245.97
2023-05-23T12:51:22.435Z,95249.91
2023-05-23T12:54:11.735Z,95238.50
2023-05-23T12:56:57.975Z,95233.34
2023-05-23T12:59:43.823Z,95225.13
2023-05-23T13:02:29.868Z,95213.69
2023-05-23T13:05:15.927Z,95208.16
2023-05-23T13:08:02.113Z,95204.97
2023-05-23T13:10:48.380Z,95202.22
2023-05-23T13:13:34.502Z,95188.78
2023-05-23T13:16:20.883Z,95188.78
2023-05-23T13:19:07.180Z,95185.88
2023-05-23T13:21:53.114Z,95179.78
2023-05-23T13:24:39.945Z,95188.22
2023-05-23T13:27:26.222Z,95189.81
2023-05-23T13:30:12.768Z,95194.09
2023-05-23T13:32:59.089Z,95182.88
2023-05-23T13:35:45.611Z,95184.22
2023-05-23T13:38:32.436Z,95183.44
2023-05-23T13:41:31.189Z,95177.31
2023-05-23T13:44:19.324Z,95170.47
2023-05-23T13:47:13.152Z,95167.41
2023-05-23T13:49:59.527Z,95160.47
2023-05-23T13:52:49.024Z,95166.81
2023-05-23T13:55:36.697Z,95162.44
2023-05-23T13:58:22.875Z,95163.94
2023-05-23T14:01:09.539Z,95162.06
2023-05-23T14:03:56.876Z,95153.13
2023-05-23T14:06:43.053Z,95151.50
2023-05-23T14:09:29.396Z,95143.09
2023-05-23T14:12:15.464Z,95140.81
2023-05-23T14:15:01.301Z,95131.97
2023-05-23T14:17:47.948Z,95150.16
2023-05-23T14:20:34.213Z,95140.06
2023-05-23T14:23:20.458Z,95146.75
2023-05-23T14:26:06.638Z,95145.50
2023-05-23T14:28:52.748Z,95149.09
2023-05-23T14:31:39.166Z,95144.28
2023-05-23T14:34:25.527Z,95131.44
2023-05-23T14:37:11.767Z,95137.72
2023-05-23T14:39:58.074Z,95131.50
2023-05-23T14:42:44.465Z,95126.84
2023-05-23T14:45:30.691Z,95130.41
2023-05-23T14:48:17.245Z,95116.69
2023-05-23T14:51:03.494Z,95132.94
2023-05-23T14:53:49.617Z,95120.72
2023-05-23T14:56:37.792Z,95119.66
2023-05-23T14:59:24.117Z,95114.78
2023-05-23T15:02:10.546Z,95114.75
2023-05-23T15:04:56.737Z,95116.41
2023-05-23T15:07:42.991Z,95105.38
2023-05-23T15:10:28.720Z,95111.56
2023-05-23T15:13:15.087Z,95104.81
2023-05-23T15:16:01.468Z,95101.47
2023-05-23T15:18:47.650Z,95100.69
2023-05-23T15:21:34.518Z,95096.03
2023-05-23T15:24:20.808Z,95101.81
2023-05-23T15:27:19.428Z,95107.91
2023-05-23T15:30:08.600Z,95092.13
2023-05-23T15:32:57.890Z,95089.19
2023-05-23T15:35:45.160Z,95085.44
2023-05-23T15:38:31.211Z,95088.41
2023-05-23T15:41:17.075Z,95080.88
2023-05-23T15:44:03.165Z,95074.91
2023-05-23T15:46:51.304Z,95064.78
2023-05-23T15:49:43.964Z,95074.50
2023-05-23T15:52:29.830Z,95072.50
2023-05-23T15:55:16.216Z,95070.06
2023-05-23T15:58:02.323Z,95071.09
2023-05-23T16:00:48.415Z,95066.81
2023-05-23T16:03:34.529Z,95069.59
2023-05-23T16:06:21.375Z,95072.09
2023-05-23T16:09:07.435Z,95065.44
2023-05-23T16:11:53.474Z,95060.44
2023-05-23T16:14:39.763Z,95061.44
2023-05-23T16:17:25.779Z,95065.38
2023-05-23T16:20:11.789Z,95056.72
2023-05-23T16:22:57.997Z,95078.69
2023-05-23T16:25:44.432Z,95069.00
2023-05-23T16:28:30.758Z,95075.47
2023-05-23T16:31:17.215Z,95076.31
2023-05-23T16:34:03.508Z,95077.19
2023-05-23T16:36:49.430Z,95079.50
2023-05-23T16:39:35.614Z,95087.88
2023-05-23T16:42:22.461Z,95089.06
2023-05-23T16:45:08.903Z,95093.00
2023-05-23T16:47:55.134Z,95105.53
2023-05-23T16:50:41.339Z,95099.47
2023-05-23T16:53:28.469Z,95106.94
2023-05-23T16:56:14.842Z,95113.53
2023-05-23T16:59:00.907Z,95115.38
2023-05-23T17:01:47.122Z,95098.72
2023-05-23T17:04:33.186Z,95116.72
2023-05-23T17:07:18.948Z,95120.09
2023-05-23T17:10:05.106Z,95116.28
2023-05-23T17:12:51.071Z,95112.47
2023-05-23T17:15:37.328Z,95122.97
2023-05-23T17:18:23.543Z,95116.00
2023-05-23T17:21:09.591Z,95122.06
2023-05-23T17:24:00.748Z,95116.34
2023-05-23T17:26:47.020Z,95126.31
2023-05-23T17:29:34.304Z,95131.97
2023-05-23T17:32:20.211Z,95148.31
2023-05-23T17:35:06.879Z,95153.56
2023-05-23T17:37:57.567Z,95138.31
2023-05-23T17:40:43.802Z,95146.31
2023-05-23T17:43:30.221Z,95163.72
2023-05-23T17:46:16.476Z,95163.81
2023-05-23T17:49:02.570Z,95163.13
2023-05-23T17:51:48.628Z,95178.13
2023-05-23T17:54:34.432Z,95195.56
2023-05-23T17:57:20.351Z,95196.44
2023-05-23T18:00:07.350Z,95212.66
2023-05-23T18:02:58.608Z,95206.00
2023-05-23T18:05:44.548Z,95221.88
2023-05-23T18:08:31.140Z,95223.47
2023-05-23T18:11:17.389Z,95223.53
2023-05-23T18:14:03.403Z,95234.25
2023-05-23T18:16:49.629Z,95232.31
2023-05-23T18:20:11.826Z,95250.47
2023-05-23T18:22:57.752Z,95249.72
2023-05-23T18:25:43.949Z,95246.63
2023-05-23T18:28:31.866Z,95238.75
2023-05-23T18:31:17.950Z,95225.41
2023-05-23T18:34:04.645Z,95225.44
2023-05-23T18:36:50.603Z,95225.41
2023-05-23T18:39:36.561Z,95227.81
2023-05-23T18:42:22.525Z,95230.59
2023-05-23T18:45:09.514Z,95250.31
2023-05-23T18:47:55.340Z,95253.84
2023-05-23T18:50:41.619Z,95256.63
2023-05-23T18:53:27.657Z,95262.56
2023-05-23T18:56:13.790Z,95252.66
2023-05-23T18:58:59.663Z,95254.22
2023-05-23T19:01:45.402Z,95243.59
2023-05-23T19:04:31.419Z,95256.19
2023-05-23T19:07:17.622Z,95255.41
2023-05-23T19:10:03.964Z,95262.47
2023-05-23T19:12:50.173Z,95260.13
2023-05-23T19:15:36.270Z,95264.81
2023-05-23T19:18:23.305Z,95271.13
2023-05-23T19:21:11.400Z,95275.81
2023-05-23T19:24:00.653Z,95263.19
2023-05-23T19:26:46.668Z,95275.38
2023-05-23T19:29:34.975Z,95288.38
2023-05-23T19:32:21.130Z,95276.50
2023-05-23T19:35:08.734Z,95287.91
2023-05-23T19:37:55.167Z,95291.75
2023-05-23T19:40:41.302Z,95300.78
2023-05-23T19:43:27.671Z,95311.75
2023-05-23T19:46:13.735Z,95318.03
2023-05-23T19:48:59.973Z,95315.59
2023-05-23T19:51:45.971Z,95315.97
2023-05-23T19:54:33.152Z,95328.50
2023-05-23T19:57:20.210Z,95330.38
2023-05-23T20:00:07.396Z,95316.16
2023-05-23T20:02:53.219Z,95335.34
2023-05-23T20:05:39.196Z,95338.81
2023-05-23T20:08:25.522Z,95339.56
2023-05-23T20:11:12.613Z,95341.91
2023-05-23T20:13:58.552Z,95346.59
2023-05-23T20:16:44.329Z,95337.09
2023-05-23T20:19:30.353Z,95332.31
2023-05-23T20:22:16.983Z,95346.84
2023-05-23T20:25:03.064Z,95344.81
2023-05-23T20:27:48.995Z,95351.03
2023-05-23T20:30:35.076Z,95352.56
2023-05-23T20:33:20.953Z,95357.25
2023-05-23T20:36:07.802Z,95351.66
2023-05-23T20:38:54.200Z,95352.34
2023-05-23T20:41:42.193Z,95342.41
2023-05-23T20:44:28.120Z,95352.19
2023-05-23T20:47:15.582Z,95346.50
2023-05-23T20:50:01.551Z,95352.75
2023-05-23T20:52:48.124Z,95357.41
2023-05-23T20:55:38.132Z,95362.13
2023-05-23T20:58:24.279Z,95370.28
2023-05-23T21:01:12.023Z,95375.34
2023-05-23T21:03:57.876Z,95353.97
2023-05-23T21:06:43.637Z,95374.00
2023-05-23T21:09:29.598Z,95370.75
2023-05-23T21:12:27.486Z,95377.41
2023-05-23T21:15:13.589Z,95378.88
2023-05-23T21:17:59.502Z,95372.53
2023-05-23T21:20:46.874Z,95374.03
2023-05-23T21:23:32.928Z,95366.84
2023-05-23T21:26:18.865Z,95372.28
2023-05-23T21:29:06.126Z,95370.63
2023-05-23T21:31:52.853Z,95366.66
2023-05-23T21:34:38.852Z,95376.84
2023-05-23T21:37:25.043Z,95359.09
2023-05-23T21:40:11.408Z,95372.00
2023-05-23T21:42:57.413Z,95366.91
2023-05-23T21:45:43.498Z,95366.84
2023-05-23T21:48:29.652Z,95352.19
2023-05-23T21:51:15.569Z,95356.09
2023-05-23T21:54:01.840Z,95362.72
2023-05-23T21:56:47.890Z,95363.88
2023-05-23T21:59:33.694Z,95355.13
2023-05-23T22:02:20.026Z,95364.50
2023-05-23T22:05:07.125Z,95361.31
2023-05-23T22:07:53.225Z,95365.59
2023-05-23T22:10:40.890Z,95360.06
2023-05-23T22:13:27.397Z,95353.63
2023-05-23T22:16:13.569Z,95348.09
2023-05-23T22:19:00.687Z,95345.63
2023-05-23T22:21:46.967Z,95352.28
2023-05-23T22:24:32.725Z,95357.38
2023-05-23T22:27:18.614Z,95356.06
2023-05-23T22:30:07.294Z,95341.50
2023-05-23T22:32:53.692Z,95358.38
2023-05-23T22:35:41.043Z,95355.22
2023-05-23T22:38:26.810Z,95348.88
2023-05-23T22:41:14.978Z,95344.94
2023-05-23T22:44:02.235Z,95346.41
2023-05-23T22:46:49.188Z,95356.91
2023-05-23T22:49:35.457Z,95349.34
2023-05-23T22:52:23.442Z,95343.75
2023-05-23T22:55:10.190Z,95340.56
2023-05-23T22:57:56.073Z,95337.00
2023-05-23T23:00:43.664Z,95343.63
2023-05-23T23:03:29.847Z,95338.78
2023-05-23T23:06:15.786Z,95343.03
2023-05-23T23:09:01.830Z,95337.16
2023-05-23T23:11:48.103Z,95340.25
2023-05-23T23:14:33.987Z,95341.75
2023-05-23T23:17:19.976Z,95333.91
2023-05-23T23:20:08.501Z,95327.50
2023-05-23T23:22:54.451Z,95325.03
2023-05-23T23:25:40.439Z,95326.63
2023-05-23T23:28:26.688Z,95329.81
2023-05-23T23:31:12.610Z,95332.78
2023-05-23T23:33:58.497Z,95330.50
2023-05-23T23:36:44.208Z,95324.97
2023-05-23T23:39:30.203Z,95304.75
2023-05-23T23:42:16.626Z,95330.72
2023-05-23T23:45:02.811Z,95329.94
2023-05-23T23:47:49.170Z,95316.91
2023-05-23T23:50:35.374Z,95324.59
2023-05-23T23:53:21.861Z,95325.38
2023-05-23T23:56:08.666Z,95333.25
2023-05-23T23:58:54.358Z,95332.38
